createdAt,value
2023-04-17T00:27:45.023Z,87.42
2023-04-17T01:27:44.953Z,87.12
2023-04-17T01:27:45.523Z,88.33
2023-04-17T01:57:45.516Z,89.17
2023-04-17T02:27:45.092Z,90.32
2023-04-17T02:57:45.249Z,91.87
2023-04-17T03:27:45.251Z,91.45
2023-04-17T03:57:45.061Z,89.79
2023-04-17T04:27:44.598Z,88.83
2023-04-17T04:57:45.173Z,87.54
2023-04-17T05:57:44.738Z,87.15
2023-04-17T06:27:44.845Z,87.72
2023-04-17T07:27:44.756Z,84.09
2023-04-17T07:57:46.742Z,77.02
2023-04-17T08:57:44.628Z,70.29
2023-04-17T09:27:44.422Z,68.93
2023-04-17T09:57:44.672Z,67.47
2023-04-17T10:27:44.312Z,66.36
2023-04-17T10:57:44.807Z,66.23
2023-04-17T11:57:44.648Z,62.98
2023-04-17T11:57:45.133Z,62.76
2023-04-17T12:27:44.476Z,59.19
2023-04-17T12:57:44.389Z,59.76
2023-04-17T13:27:43.948Z,54.18
2023-04-17T13:57:43.907Z,54.94
2023-04-17T14:27:43.728Z,52.34
2023-04-17T14:57:44.234Z,55.62
2023-04-17T15:27:43.857Z,51.31
2023-04-17T15:57:44.046Z,52.61
2023-04-17T16:27:43.941Z,52.27
2023-04-17T16:57:43.856Z,54.97
2023-04-17T17:27:43.479Z,54.31
2023-04-17T17:57:49.151Z,58.36
2023-04-17T18:27:43.609Z,59.85
2023-04-17T18:57:43.686Z,61.55
2023-04-17T19:27:43.652Z,64.16
2023-04-17T19:57:43.558Z,68.32
2023-04-17T20:27:43.097Z,68.02
2023-04-17T20:57:43.446Z,68.09
2023-04-17T21:27:43.452Z,70.58
2023-04-17T21:57:43.357Z,71.21
2023-04-17T22:27:43.200Z,73.4
2023-04-17T22:57:43.223Z,74.11
2023-04-17T23:27:42.831Z,75.83
2023-04-17T23:57:43.233Z,78.06
